KAWG

Washington Municipal Airport

Washington, Iowa, USA
METAR KAWG 211255Z AUTO 34011KT CLR M08/M10 A3056 RMK AO2
Observed Flight Rules
Feb-21 @ 12:55 UTC (27 minutes ago)
Wind Clouds
340° at 11 knots
  • Clear skies
Temperatures Readings
Current -8°C / 18°F
Dewpoint -10°C / 14°F
Humidity 86%
Altimeter 30.56" Hg
Pressure 1035 hPa
Elevation 230
METAR KAWG 211255Z AUTO 34011KT CLR M08/M10 A3056 RMK AO2
Observed Flight Rules
Feb-21 @ 12:55 UTC
(27 minutes ago)
Wind
340° at 11 knots
Clouds
  • Clear skies
Temperature Dewpoint
-8°C / 18°F -10°C / 14°F
Humidity Altimeter Pressure
86% 30.56" Hg 1035 hPa